Time;durP1;ratioP1;P1;durP2;ratioP2;P2;SDS_P1;SDS_P2;PMS_P1;PMS_P2;Temp;Humidity;BMP_temperature;BMP_pressure;BME280_temperature;BME280_humidity;BME280_pressure;Samples;Min_cycle;Max_cycle;Signal;HPM_P1;HPM_P2
2021/09/22 00:00:45;;;;;;;7.90;4.55;;;13.30;99.90;;;;;;5093654;28;20028;-72
2021/09/22 00:03:11;;;;;;;6.78;4.72;;;13.30;99.90;;;;;;5092133;28;20024;-72
2021/09/22 00:05:37;;;;;;;8.75;5.18;;;13.20;99.90;;;;;;5091437;28;20107;-72
2021/09/22 00:08:03;;;;;;;6.28;4.63;;;13.20;99.90;;;;;;5091950;28;20061;-73
2021/09/22 00:10:28;;;;;;;7.03;4.68;;;13.00;99.90;;;;;;5092541;28;20070;-73
2021/09/22 00:12:54;;;;;;;7.97;5.22;;;13.00;99.90;;;;;;5091995;28;20046;-73
2021/09/22 00:15:23;;;;;;;8.57;4.80;;;13.10;99.90;;;;;;5092782;28;20028;-73
2021/09/22 00:17:49;;;;;;;10.05;4.72;;;13.00;99.90;;;;;;5093205;28;20016;-72
2021/09/22 00:20:16;;;;;;;7.68;4.93;;;12.90;99.90;;;;;;5090770;28;20414;-72
2021/09/22 00:22:42;;;;;;;10.02;5.57;;;13.00;99.90;;;;;;5092887;28;20077;-72
2021/09/22 00:25:09;;;;;;;7.40;5.13;;;13.00;99.90;;;;;;5091288;28;20473;-71
2021/09/22 00:27:35;;;;;;;6.85;5.05;;;13.00;99.90;;;;;;5092309;28;20143;-71
2021/09/22 00:30:00;;;;;;;7.07;5.28;;;13.00;99.90;;;;;;5091124;28;20503;-73
2021/09/22 00:32:27;;;;;;;8.02;5.35;;;12.90;99.90;;;;;;5090765;28;20070;-73
2021/09/22 00:34:53;;;;;;;11.98;5.50;;;12.90;99.90;;;;;;5092562;28;20031;-73
2021/09/22 00:37:19;;;;;;;9.68;5.25;;;13.00;99.90;;;;;;5090441;28;20198;-73
2021/09/22 00:39:45;;;;;;;9.07;4.88;;;12.80;99.90;;;;;;5092541;28;20051;-73
2021/09/22 00:42:10;;;;;;;9.73;5.55;;;12.80;99.90;;;;;;5093030;28;20454;-73
2021/09/22 00:45:07;;;;;;;7.07;4.80;;;12.70;99.90;;;;;;5091904;28;20047;-72
2021/09/22 00:47:33;;;;;;;10.68;4.72;;;12.60;99.90;;;;;;5079061;28;20047;-73
2021/09/22 00:50:00;;;;;;;7.32;4.63;;;12.70;99.90;;;;;;5091028;28;20174;-73
2021/09/22 00:52:25;;;;;;;5.85;4.78;;;12.70;99.90;;;;;;5090359;28;20028;-72
2021/09/22 00:54:52;;;;;;;9.93;5.18;;;12.80;99.90;;;;;;5090891;28;20039;-71
2021/09/22 00:57:19;;;;;;;7.10;4.57;;;12.80;99.90;;;;;;5090635;28;20032;-73
2021/09/22 00:59:45;;;;;;;9.48;5.57;;;12.80;99.90;;;;;;5090828;28;20185;-73
2021/09/22 01:02:11;;;;;;;8.20;4.82;;;12.70;99.90;;;;;;5092030;28;20036;-73
2021/09/22 01:04:38;;;;;;;10.35;5.30;;;12.80;99.90;;;;;;5091330;28;20449;-73
2021/09/22 01:07:05;;;;;;;6.43;4.88;;;12.70;99.90;;;;;;5092195;28;20081;-73
2021/09/22 01:09:31;;;;;;;7.70;4.60;;;12.60;99.90;;;;;;5089984;28;20081;-73
2021/09/22 01:11:57;;;;;;;9.07;5.20;;;12.50;99.90;;;;;;5090779;28;20032;-71
2021/09/22 01:14:24;;;;;;;8.88;4.95;;;12.50;99.90;;;;;;5091822;28;20036;-73
2021/09/22 01:16:50;;;;;;;8.02;5.15;;;12.50;99.90;;;;;;5090438;28;20024;-72
2021/09/22 01:19:17;;;;;;;11.40;5.20;;;12.60;99.90;;;;;;5090340;28;20032;-73
2021/09/22 01:21:44;;;;;;;9.40;5.22;;;12.60;99.90;;;;;;5089855;28;20051;-73
2021/09/22 01:24:10;;;;;;;8.52;5.20;;;12.60;99.90;;;;;;5090041;28;20148;-73
2021/09/22 01:26:36;;;;;;;7.68;4.65;;;12.60;99.90;;;;;;5089815;28;20411;-72
2021/09/22 01:29:03;;;;;;;17.20;5.35;;;12.50;99.90;;;;;;5091754;28;20051;-72
2021/09/22 01:31:28;;;;;;;10.02;5.60;;;12.60;99.90;;;;;;5090377;28;20034;-72
2021/09/22 01:33:54;;;;;;;9.82;5.15;;;12.60;99.90;;;;;;5091606;28;20478;-73
2021/09/22 01:36:20;;;;;;;7.80;4.82;;;12.60;99.90;;;;;;5090247;28;20028;-71
2021/09/22 01:38:46;;;;;;;5.90;4.60;;;12.50;99.90;;;;;;5090242;28;20024;-72
2021/09/22 01:41:13;;;;;;;9.30;5.50;;;12.50;99.90;;;;;;5090082;28;20032;-72
2021/09/22 01:43:39;;;;;;;6.70;4.97;;;12.50;99.90;;;;;;5090932;28;20020;-72
2021/09/22 01:46:07;;;;;;;6.85;4.28;;;12.50;99.90;;;;;;5091274;28;20051;-72
2021/09/22 01:48:34;;;;;;;7.47;4.75;;;12.50;99.90;;;;;;5090627;28;20020;-72
2021/09/22 01:51:01;;;;;;;5.72;4.82;;;12.50;99.90;;;;;;5090432;28;20116;-72
2021/09/22 01:53:27;;;;;;;9.45;4.88;;;12.50;99.90;;;;;;5082854;28;20111;-72
2021/09/22 01:55:54;;;;;;;8.10;5.00;;;12.40;99.90;;;;;;5072186;28;20366;-73
2021/09/22 01:58:21;;;;;;;8.60;5.03;;;12.40;99.90;;;;;;5070423;28;20044;-72
2021/09/22 02:00:47;;;;;;;10.50;4.88;;;12.30;99.90;;;;;;5070548;28;20504;-72
2021/09/22 02:03:14;;;;;;;8.02;5.75;;;12.20;99.90;;;;;;5069529;28;20020;-72
2021/09/22 02:05:40;;;;;;;13.02;4.80;;;12.20;99.90;;;;;;5068850;28;20060;-72
2021/09/22 02:08:05;;;;;;;7.85;5.20;;;12.20;99.90;;;;;;5069093;28;20028;-73
2021/09/22 02:10:31;;;;;;;8.05;4.90;;;12.30;99.90;;;;;;5069031;28;20397;-72
2021/09/22 02:12:57;;;;;;;6.82;5.03;;;12.30;99.90;;;;;;5070534;28;20449;-72
2021/09/22 02:15:23;;;;;;;6.35;4.38;;;12.30;99.90;;;;;;5070556;28;20082;-73
2021/09/22 02:17:49;;;;;;;6.32;4.38;;;12.30;99.90;;;;;;5069584;28;20102;-73
2021/09/22 02:20:15;;;;;;;7.70;4.60;;;12.30;99.90;;;;;;5070300;28;20028;-72
2021/09/22 02:22:41;;;;;;;10.65;5.40;;;12.20;99.90;;;;;;5068493;28;20029;-72
2021/09/22 02:25:09;;;;;;;6.75;4.32;;;12.20;99.90;;;;;;5068823;28;20071;-72
2021/09/22 02:27:35;;;;;;;8.15;4.90;;;12.20;99.90;;;;;;5070070;28;20028;-73
2021/09/22 02:30:01;;;;;;;6.22;4.60;;;12.20;99.90;;;;;;5070849;28;20033;-72
2021/09/22 02:32:27;;;;;;;10.07;5.13;;;12.10;99.90;;;;;;5068570;28;20131;-73
2021/09/22 02:34:52;;;;;;;6.82;4.78;;;12.20;99.90;;;;;;5070890;28;20127;-72
2021/09/22 02:37:18;;;;;;;7.82;4.15;;;12.20;99.90;;;;;;5070718;28;20484;-72
2021/09/22 02:39:43;;;;;;;7.30;4.85;;;12.10;99.90;;;;;;5068249;28;20214;-72
2021/09/22 02:42:09;;;;;;;7.47;5.18;;;12.20;99.90;;;;;;5070064;28;20382;-72
2021/09/22 02:44:35;;;;;;;8.45;4.53;;;12.20;99.90;;;;;;5067938;28;20021;-73
2021/09/22 02:47:01;;;;;;;14.02;5.68;;;12.10;99.90;;;;;;5068823;28;20074;-72
2021/09/22 02:49:26;;;;;;;9.45;4.95;;;12.10;99.90;;;;;;5068187;28;20039;-73
2021/09/22 02:51:52;;;;;;;7.72;4.45;;;12.00;99.90;;;;;;5068688;28;20377;-72
2021/09/22 02:54:18;;;;;;;5.60;4.82;;;12.00;99.90;;;;;;5068784;28;20032;-72
2021/09/22 02:56:44;;;;;;;7.90;4.70;;;12.10;99.90;;;;;;5069822;28;20035;-72
2021/09/22 02:59:10;;;;;;;14.07;5.10;;;12.00;99.90;;;;;;5068656;28;20080;-72
2021/09/22 03:01:36;;;;;;;6.60;4.18;;;12.00;99.90;;;;;;5068055;28;20024;-72
2021/09/22 03:04:02;;;;;;;6.63;4.53;;;12.00;99.90;;;;;;5070338;28;20028;-72
2021/09/22 03:06:28;;;;;;;13.55;5.35;;;12.00;99.90;;;;;;5069822;28;20499;-73
2021/09/22 03:08:54;;;;;;;8.77;4.65;;;12.00;99.90;;;;;;5068977;28;20043;-73
2021/09/22 03:11:19;;;;;;;7.40;4.70;;;11.90;99.90;;;;;;5068829;28;20474;-73
2021/09/22 03:13:45;;;;;;;9.70;4.45;;;11.80;99.90;;;;;;5068150;28;20027;-73
2021/09/22 03:16:11;;;;;;;8.85;4.50;;;11.90;99.90;;;;;;5069232;28;20035;-72
2021/09/22 03:18:37;;;;;;;6.57;4.85;;;11.90;99.90;;;;;;5067079;28;20045;-73
2021/09/22 03:21:04;;;;;;;6.45;4.88;;;11.90;99.90;;;;;;5067774;28;20045;-72
2021/09/22 03:23:30;;;;;;;9.27;5.10;;;11.90;99.90;;;;;;5050358;28;20036;-72
2021/09/22 03:25:56;;;;;;;8.30;4.30;;;11.90;99.90;;;;;;5050767;28;20140;-72
2021/09/22 03:28:22;;;;;;;6.35;4.53;;;11.90;99.90;;;;;;5050935;28;20048;-72
2021/09/22 03:30:48;;;;;;;5.55;4.60;;;11.80;99.90;;;;;;5050449;28;20037;-72
2021/09/22 03:33:15;;;;;;;6.00;4.32;;;11.90;99.90;;;;;;5067544;28;20131;-72
2021/09/22 03:35:41;;;;;;;6.20;4.47;;;11.90;99.90;;;;;;5050204;28;20024;-72
2021/09/22 03:38:07;;;;;;;7.70;4.35;;;11.80;99.90;;;;;;5067473;28;20052;-72
2021/09/22 03:40:33;;;;;;;9.45;5.35;;;11.70;99.90;;;;;;5066937;28;20036;-71
2021/09/22 03:42:59;;;;;;;6.80;4.40;;;11.60;99.90;;;;;;5050773;28;20496;-72
2021/09/22 03:45:25;;;;;;;8.43;5.40;;;11.60;99.90;;;;;;5067523;28;20092;-72
2021/09/22 03:47:51;;;;;;;10.40;4.63;;;11.60;99.90;;;;;;5066758;28;20527;-72
2021/09/22 03:50:17;;;;;;;6.25;4.22;;;11.50;99.90;;;;;;5063773;28;20064;-72
2021/09/22 03:52:43;;;;;;;6.47;4.80;;;11.60;99.90;;;;;;5067594;28;20125;-72
2021/09/22 03:55:09;;;;;;;7.32;5.18;;;11.50;99.90;;;;;;5070596;28;20079;-72
2021/09/22 03:57:35;;;;;;;5.82;3.90;;;11.50;99.90;;;;;;5071364;28;20028;-72
2021/09/22 04:00:00;;;;;;;10.27;4.20;;;11.40;99.90;;;;;;5071915;28;20039;-72
2021/09/22 04:02:26;;;;;;;9.07;5.10;;;11.40;99.90;;;;;;5071903;28;20033;-72
2021/09/22 04:04:52;;;;;;;6.28;4.80;;;11.40;99.90;;;;;;5071306;28;20039;-72
2021/09/22 04:07:18;;;;;;;5.07;3.75;;;11.30;99.90;;;;;;5071746;28;20028;-72
2021/09/22 04:09:43;;;;;;;7.38;4.47;;;11.40;99.90;;;;;;5071063;28;20029;-72
2021/09/22 04:12:09;;;;;;;8.80;5.35;;;11.40;99.90;;;;;;5071767;28;20024;-72
2021/09/22 04:14:35;;;;;;;12.77;5.15;;;11.20;99.90;;;;;;5072973;28;20085;-72
2021/09/22 04:17:00;;;;;;;8.10;4.50;;;11.10;99.90;;;;;;5072870;28;20036;-71
2021/09/22 04:19:26;;;;;;;9.23;4.60;;;11.20;99.90;;;;;;5071650;28;20099;-71
2021/09/22 04:21:52;;;;;;;6.20;4.97;;;11.20;99.90;;;;;;5071989;28;20016;-71
2021/09/22 04:24:17;;;;;;;6.97;5.05;;;11.20;99.90;;;;;;5072756;28;20053;-73
2021/09/22 04:26:43;;;;;;;9.45;5.00;;;11.10;99.90;;;;;;5070902;28;20024;-72
2021/09/22 04:29:09;;;;;;;7.60;5.10;;;11.10;99.90;;;;;;5071360;28;20025;-72
2021/09/22 04:31:35;;;;;;;6.90;5.15;;;11.10;99.90;;;;;;5070888;28;20025;-72
2021/09/22 04:34:01;;;;;;;9.38;5.93;;;11.00;99.90;;;;;;5071037;28;20370;-72
2021/09/22 04:36:28;;;;;;;6.97;5.43;;;11.00;99.90;;;;;;5072978;28;20035;-72
2021/09/22 04:38:53;;;;;;;8.85;5.28;;;11.10;99.90;;;;;;5071793;28;20054;-71
2021/09/22 04:41:19;;;;;;;11.68;5.93;;;11.10;99.90;;;;;;5070995;28;20040;-73
2021/09/22 04:43:45;;;;;;;8.20;4.63;;;11.10;99.90;;;;;;5070785;28;20394;-75
2021/09/22 04:46:10;;;;;;;7.47;4.72;;;11.00;99.90;;;;;;5072224;28;20320;-72
2021/09/22 04:48:39;;;;;;;7.03;5.57;;;11.00;99.90;;;;;;5072013;28;20029;-73
2021/09/22 04:51:05;;;;;;;10.23;5.57;;;11.10;99.90;;;;;;5070682;28;20032;-72
2021/09/22 04:53:31;;;;;;;9.93;5.72;;;11.20;99.90;;;;;;5071892;28;20115;-72
2021/09/22 04:55:57;;;;;;;10.65;5.53;;;11.00;99.90;;;;;;5072081;28;20036;-72
2021/09/22 04:58:23;;;;;;;8.05;5.70;;;11.10;99.90;;;;;;5070856;28;20028;-72
2021/09/22 05:00:48;;;;;;;6.75;5.60;;;11.00;99.90;;;;;;5069909;28;20478;-72
2021/09/22 05:03:15;;;;;;;9.00;4.78;;;11.10;99.90;;;;;;5070769;28;20028;-71
2021/09/22 05:05:41;;;;;;;8.70;5.57;;;11.10;99.90;;;;;;5069488;28;20036;-72
2021/09/22 05:08:07;;;;;;;9.13;5.45;;;11.00;99.90;;;;;;5070136;28;20047;-71
2021/09/22 05:10:34;;;;;;;10.23;5.65;;;11.10;99.90;;;;;;5071517;28;20064;-78
2021/09/22 05:12:59;;;;;;;14.18;6.20;;;11.00;99.90;;;;;;5071473;28;20029;-72
2021/09/22 05:15:25;;;;;;;10.38;6.03;;;10.90;99.90;;;;;;5070261;28;20055;-72
2021/09/22 05:17:51;;;;;;;10.85;5.47;;;10.90;99.90;;;;;;5069733;28;20031;-72
2021/09/22 05:20:16;;;;;;;6.47;5.20;;;11.00;99.90;;;;;;5070249;28;20067;-72
2021/09/22 05:22:42;;;;;;;11.63;5.93;;;11.00;99.90;;;;;;5069220;28;20028;-72
2021/09/22 05:25:08;;;;;;;8.65;5.57;;;11.00;99.90;;;;;;5071487;28;20053;-72
2021/09/22 05:27:35;;;;;;;8.68;6.03;;;11.00;99.90;;;;;;5069851;28;20059;-80
2021/09/22 05:30:00;;;;;;;8.18;5.38;;;11.10;99.90;;;;;;5071146;28;20550;-72
2021/09/22 05:32:26;;;;;;;8.93;5.60;;;11.10;99.90;;;;;;5069963;28;20024;-72
2021/09/22 05:34:52;;;;;;;9.20;5.10;;;11.10;99.90;;;;;;5069088;28;20048;-73
2021/09/22 05:37:18;;;;;;;8.60;6.20;;;11.20;99.90;;;;;;5069470;28;20058;-73
2021/09/22 05:39:44;;;;;;;8.27;5.28;;;11.20;99.90;;;;;;5069269;28;20035;-72
2021/09/22 05:42:10;;;;;;;9.80;5.97;;;11.20;99.90;;;;;;5069415;28;20024;-72
2021/09/22 05:44:36;;;;;;;8.48;4.75;;;11.20;99.90;;;;;;5069317;28;20350;-77
2021/09/22 05:47:01;;;;;;;7.30;4.88;;;11.10;99.90;;;;;;5071131;28;20032;-72
2021/09/22 05:49:28;;;;;;;11.85;5.18;;;11.20;99.90;;;;;;5068869;28;20032;-72
2021/09/22 05:51:54;;;;;;;11.40;5.93;;;11.30;99.90;;;;;;5068848;28;20164;-71
2021/09/22 05:54:21;;;;;;;10.98;5.97;;;11.30;99.90;;;;;;5069424;28;20032;-72
2021/09/22 05:56:48;;;;;;;13.70;5.10;;;11.30;99.90;;;;;;5068488;28;20028;-72
2021/09/22 05:59:13;;;;;;;8.73;4.82;;;11.30;99.90;;;;;;5070577;28;20107;-72
2021/09/22 06:01:40;;;;;;;10.27;5.45;;;11.30;99.90;;;;;;5068393;28;20557;-72
2021/09/22 06:04:06;;;;;;;9.23;5.00;;;11.30;99.90;;;;;;5069390;28;20111;-72
2021/09/22 06:06:32;;;;;;;10.05;6.70;;;11.50;99.90;;;;;;5069282;28;20024;-72
2021/09/22 06:08:57;;;;;;;9.73;6.05;;;11.50;99.90;;;;;;5068402;28;20028;-72
2021/09/22 06:11:23;;;;;;;11.45;6.60;;;11.40;99.90;;;;;;5070274;28;20550;-72
2021/09/22 06:13:52;;;;;;;9.32;5.90;;;11.50;99.90;;;;;;5068404;28;20350;-72
2021/09/22 06:16:19;;;;;;;14.00;5.85;;;11.40;99.90;;;;;;5068553;28;20055;-72
2021/09/22 06:18:45;;;;;;;13.57;6.38;;;11.40;99.90;;;;;;5068504;28;20024;-73
2021/09/22 06:21:10;;;;;;;13.00;6.25;;;11.30;99.90;;;;;;5069780;28;20036;-71
2021/09/22 06:23:36;;;;;;;13.43;6.45;;;11.50;99.90;;;;;;5068785;28;20321;-72
2021/09/22 06:26:02;;;;;;;13.80;6.45;;;11.60;99.90;;;;;;5070053;28;20059;-73
2021/09/22 06:28:28;;;;;;;9.02;5.80;;;11.70;99.90;;;;;;5070535;28;20024;-72
2021/09/22 06:30:53;;;;;;;16.10;6.68;;;11.70;99.90;;;;;;5068544;28;20029;-72
2021/09/22 06:33:19;;;;;;;10.18;6.38;;;11.50;99.90;;;;;;5070700;28;20023;-72
2021/09/22 06:35:45;;;;;;;13.98;6.63;;;11.60;99.90;;;;;;5069717;28;20362;-74
2021/09/22 06:38:11;;;;;;;16.95;6.53;;;11.80;99.90;;;;;;5069789;28;20033;-74
2021/09/22 06:40:37;;;;;;;15.23;7.40;;;11.90;99.90;;;;;;5068354;28;20060;-72
2021/09/22 06:43:05;;;;;;;14.20;7.13;;;12.30;99.90;;;;;;5069728;28;20025;-72
2021/09/22 06:45:31;;;;;;;9.70;6.32;;;12.50;99.90;;;;;;5069014;28;20093;-72
2021/09/22 06:47:57;;;;;;;10.02;6.95;;;12.40;99.90;;;;;;5069296;28;20029;-71
2021/09/22 06:50:25;;;;;;;20.20;7.25;;;12.40;99.90;;;;;;5068819;28;20028;-71
2021/09/22 06:52:51;;;;;;;9.10;6.47;;;12.80;99.90;;;;;;5067963;28;20048;-68
2021/09/22 06:55:17;;;;;;;9.25;4.75;;;13.00;99.90;;;;;;5068530;28;20169;-66
2021/09/22 06:57:43;;;;;;;10.75;6.35;;;13.40;99.90;;;;;;5069267;28;20122;-65
2021/09/22 07:00:10;;;;;;;15.57;5.60;;;14.00;99.90;;;;;;5068436;28;20537;-66
2021/09/22 07:02:41;;;;;;;19.70;8.05;;;14.40;99.90;;;;;;5068564;28;20390;-66
2021/09/22 07:05:08;;;;;;;11.02;5.65;;;14.60;99.90;;;;;;5068339;28;20029;-65
2021/09/22 07:07:34;;;;;;;9.35;5.70;;;14.90;99.90;;;;;;5068428;28;20028;-66
2021/09/22 07:10:00;;;;;;;6.93;4.97;;;15.30;99.90;;;;;;5068052;28;20383;-66
2021/09/22 07:12:26;;;;;;;10.63;5.47;;;15.90;99.90;;;;;;5069637;28;20016;-65
2021/09/22 07:14:51;;;;;;;7.93;5.30;;;15.90;99.90;;;;;;5069139;28;20024;-65
2021/09/22 07:17:18;;;;;;;9.93;5.57;;;15.90;99.90;;;;;;5069738;28;20032;-65
2021/09/22 07:19:45;;;;;;;7.97;4.30;;;15.80;99.90;;;;;;5067977;28;20033;-66
2021/09/22 07:22:10;;;;;;;7.68;4.63;;;15.80;99.90;;;;;;5067648;28;20043;-69
2021/09/22 07:24:36;;;;;;;10.73;4.90;;;16.40;99.90;;;;;;5089731;28;20127;-65
2021/09/22 07:27:02;;;;;;;13.02;5.07;;;16.70;99.90;;;;;;5089107;28;20044;-65
2021/09/22 07:29:28;;;;;;;9.35;6.03;;;16.80;99.90;;;;;;5076249;28;20449;-65
2021/09/22 07:31:55;;;;;;;11.30;4.35;;;16.70;99.90;;;;;;5071161;28;20028;-65
2021/09/22 07:34:21;;;;;;;8.93;6.10;;;17.00;99.90;;;;;;5073228;28;20021;-65
2021/09/22 07:36:49;;;;;;;13.63;5.60;;;17.30;99.90;;;;;;5073176;28;20029;-65
2021/09/22 07:39:15;;;;;;;11.23;4.82;;;17.30;99.90;;;;;;5081713;28;20028;-65
2021/09/22 07:41:41;;;;;;;6.40;5.68;;;17.20;99.90;;;;;;5089427;28;20456;-66
2021/09/22 07:44:07;;;;;;;7.75;5.65;;;17.00;99.90;;;;;;5070586;28;20074;-65
2021/09/22 07:46:32;;;;;;;7.72;5.38;;;17.10;99.90;;;;;;5071391;28;20024;-65
2021/09/22 07:48:58;;;;;;;10.52;6.50;;;17.30;99.90;;;;;;5070923;28;20103;-65
2021/09/22 07:51:24;;;;;;;12.07;6.68;;;17.40;99.90;;;;;;5073036;28;20454;-65
2021/09/22 07:53:50;;;;;;;10.30;5.97;;;17.30;99.90;;;;;;5071040;28;20051;-64
2021/09/22 07:56:15;;;;;;;15.60;5.88;;;17.60;99.90;;;;;;5086077;28;20385;-67
2021/09/22 07:58:41;;;;;;;9.23;6.03;;;17.90;98.90;;;;;;5093469;28;20389;-65
2021/09/22 08:01:07;;;;;;;11.65;5.88;;;17.80;98.90;;;;;;5110708;28;20043;-66
2021/09/22 08:03:32;;;;;;;8.35;6.03;;;17.50;99.10;;;;;;5111181;28;20085;-68
2021/09/22 08:05:58;;;;;;;8.23;5.75;;;17.80;99.00;;;;;;5110277;28;20028;-65
2021/09/22 08:08:24;;;;;;;9.73;5.20;;;18.10;99.40;;;;;;5112039;28;20365;-67
2021/09/22 08:10:49;;;;;;;11.82;5.55;;;18.30;98.80;;;;;;5111799;28;20054;-66
2021/09/22 08:13:15;;;;;;;7.93;5.10;;;18.10;97.70;;;;;;5110235;28;20445;-66
2021/09/22 08:15:42;;;;;;;8.25;5.03;;;17.60;98.40;;;;;;5110868;28;20028;-75
2021/09/22 08:18:09;;;;;;;8.18;5.63;;;17.50;98.10;;;;;;5110511;28;20028;-75
2021/09/22 08:20:36;;;;;;;14.48;5.82;;;17.50;98.50;;;;;;5110424;28;20085;-75
2021/09/22 08:23:03;;;;;;;9.13;6.22;;;17.40;98.60;;;;;;5109045;28;20516;-75
2021/09/22 08:25:29;;;;;;;9.38;5.45;;;17.00;99.20;;;;;;5110200;28;20397;-76
2021/09/22 08:27:55;;;;;;;7.85;5.07;;;17.00;99.40;;;;;;5110032;28;20032;-77
2021/09/22 08:30:23;;;;;;;7.30;5.88;;;17.20;99.30;;;;;;5111716;28;20034;-78
2021/09/22 08:32:49;;;;;;;7.97;5.57;;;17.20;98.90;;;;;;5109557;28;20020;-77
2021/09/22 08:35:15;;;;;;;10.70;5.82;;;17.20;98.80;;;;;;5110243;28;20516;-76
2021/09/22 08:37:41;;;;;;;9.05;6.10;;;16.60;99.50;;;;;;5110539;28;20221;-74
2021/09/22 08:40:08;;;;;;;10.43;6.13;;;16.30;99.90;;;;;;5109258;28;20058;-75
2021/09/22 08:42:35;;;;;;;11.50;5.75;;;16.20;99.90;;;;;;5109172;28;20043;-74
2021/09/22 08:45:01;;;;;;;7.72;5.68;;;16.70;99.90;;;;;;5110818;28;20499;-75
2021/09/22 08:47:27;;;;;;;8.25;5.30;;;16.70;99.80;;;;;;5111426;28;20464;-75
2021/09/22 08:49:53;;;;;;;11.07;5.40;;;16.60;99.90;;;;;;5110883;28;20076;-77
2021/09/22 08:52:19;;;;;;;8.80;5.80;;;16.70;99.90;;;;;;5091091;28;20474;-71
2021/09/22 08:54:45;;;;;;;10.00;5.43;;;17.00;99.90;;;;;;5091330;28;20039;-68
2021/09/22 08:57:11;;;;;;;11.73;5.32;;;17.40;99.60;;;;;;5090689;28;20024;-74
2021/09/22 08:59:37;;;;;;;7.95;5.95;;;17.80;99.60;;;;;;5071865;28;20040;-67
2021/09/22 09:02:09;;;;;;;7.13;5.07;;;18.10;99.20;;;;;;5069634;28;20024;-68
2021/09/22 09:04:37;;;;;;;7.63;5.05;;;18.50;99.50;;;;;;5072896;28;20028;-69
2021/09/22 09:07:02;;;;;;;12.93;4.82;;;19.30;98.10;;;;;;5084227;28;20012;-69
2021/09/22 09:09:48;;;;;;;5.38;4.40;;;20.00;97.60;;;;;;5090384;28;20036;-70
2021/09/22 09:12:20;;;;;;;36.45;12.25;;;20.40;95.70;;;;;;5095646;28;20039;-73
2021/09/22 09:14:54;;;;;;;13.07;6.78;;;20.90;95.70;;;;;;5102825;28;20038;-73
2021/09/22 09:17:58;;;;;;;10.45;6.95;;;20.80;94.90;;;;;;5094089;28;20028;-73
2021/09/22 09:20:26;;;;;;;8.95;5.25;;;21.00;94.80;;;;;;5079098;28;20036;-71
2021/09/22 09:23:00;;;;;;;8.93;5.32;;;21.70;94.50;;;;;;5094336;28;20081;-74
2021/09/22 09:25:27;;;;;;;5.57;4.70;;;22.00;93.20;;;;;;5088770;28;20520;-74
2021/09/22 09:27:53;;;;;;;11.38;5.82;;;21.70;94.00;;;;;;5090290;28;20022;-74
2021/09/22 09:30:25;;;;;;;13.15;8.25;;;21.80;93.70;;;;;;5109614;28;20027;-73
2021/09/22 09:32:52;;;;;;;11.55;5.70;;;21.70;93.80;;;;;;5110150;28;20030;-73
2021/09/22 09:35:20;;;;;;;13.82;5.63;;;21.80;92.80;;;;;;5092478;28;20060;-75
2021/09/22 09:37:51;;;;;;;13.55;5.05;;;21.40;92.90;;;;;;5088908;28;20027;-73
2021/09/22 09:40:20;;;;;;;18.83;6.32;;;20.90;94.00;;;;;;5090958;28;20032;-73
2021/09/22 09:42:49;;;;;;;8.80;5.47;;;21.60;93.70;;;;;;5090570;28;20119;-77
2021/09/22 09:45:19;;;;;;;10.90;4.60;;;21.30;92.80;;;;;;5091585;28;20051;-74
2021/09/22 09:48:05;;;;;;;7.72;4.70;;;21.00;93.90;;;;;;5090275;28;20100;-74
2021/09/22 09:50:47;;;;;;;11.27;5.40;;;21.40;93.60;;;;;;5089593;28;20028;-74
2021/09/22 09:53:38;;;;;;;;;;;21.90;92.60;;;;;;5091029;28;20069;-74
2021/09/22 09:56:04;;;;;;;12.73;5.63;;;21.60;92.60;;;;;;5086819;28;20249;-73
2021/09/22 09:58:42;;;;;;;7.60;5.85;;;21.40;92.20;;;;;;5089554;28;20073;-73
2021/09/22 10:01:07;;;;;;;7.00;5.22;;;21.00;92.90;;;;;;5087844;28;20040;-74
2021/09/22 10:03:33;;;;;;;9.48;5.07;;;21.10;92.40;;;;;;5090286;28;20393;-74
2021/09/22 10:05:59;;;;;;;11.27;6.13;;;20.20;92.80;;;;;;5090194;28;20025;-74
2021/09/22 10:08:28;;;;;;;10.27;5.30;;;20.30;93.90;;;;;;5088500;28;20055;-73
2021/09/22 10:10:55;;;;;;;7.72;4.63;;;20.60;93.40;;;;;;5087246;28;20039;-74
2021/09/22 10:13:22;;;;;;;4.93;3.80;;;20.40;93.10;;;;;;5088059;28;20088;-74
2021/09/22 10:15:50;;;;;;;9.20;4.20;;;20.90;93.80;;;;;;5088550;28;20016;-75
2021/09/22 10:18:19;;;;;;;9.85;3.75;;;21.40;93.20;;;;;;5088049;28;20110;-74
2021/09/22 10:20:48;;;;;;;7.90;4.15;;;21.90;93.90;;;;;;5087440;28;20386;-74
2021/09/22 10:23:15;;;;;;;11.05;3.65;;;22.70;92.40;;;;;;5085497;28;20161;-74
2021/09/22 10:25:41;;;;;;;6.68;4.13;;;23.00;92.40;;;;;;5089471;28;20083;-74
2021/09/22 10:28:08;;;;;;;7.43;4.40;;;22.90;91.40;;;;;;5088469;28;20093;-74
2021/09/22 10:30:39;;;;;;;8.82;4.40;;;23.20;90.60;;;;;;5088664;28;20393;-74
2021/09/22 10:33:22;;;;;;;9.65;4.28;;;23.40;90.00;;;;;;5089029;28;20036;-74
2021/09/22 10:35:55;;;;;;;7.18;4.60;;;23.20;89.60;;;;;;5089057;28;20024;-74
2021/09/22 10:38:20;;;;;;;6.38;4.65;;;23.70;89.50;;;;;;5089425;28;20494;-74
2021/09/22 10:41:00;;;;;;;9.05;4.10;;;24.20;88.70;;;;;;5089352;28;20123;-73
2021/09/22 10:43:28;;;;;;;7.75;4.93;;;24.60;89.30;;;;;;5089320;28;20118;-72
2021/09/22 10:46:00;;;;;;;7.50;3.88;;;25.00;85.90;;;;;;5088752;28;20114;-73
2021/09/22 10:48:26;;;;;;;19.27;4.57;;;24.40;85.40;;;;;;5089370;28;20037;-73
2021/09/22 10:50:58;;;;;;;8.50;4.30;;;24.60;86.00;;;;;;5088138;28;20029;-73
2021/09/22 10:53:36;;;;;;;7.72;3.90;;;24.90;84.70;;;;;;5089080;28;20028;-73
2021/09/22 10:56:10;;;;;;;8.65;4.47;;;24.80;85.00;;;;;;5088242;28;20169;-73
2021/09/22 10:58:42;;;;;;;7.47;3.85;;;24.70;84.90;;;;;;5088386;28;20035;-73
2021/09/22 11:01:09;;;;;;;10.77;3.58;;;24.70;86.40;;;;;;5089195;28;20028;-73
2021/09/22 11:03:53;;;;;;;8.55;3.40;;;24.70;86.80;;;;;;5088383;28;20044;-73
2021/09/22 11:09:19;;;;;;;9.70;4.22;;;24.70;84.50;;;;;;5093295;28;20039;-73
2021/09/22 11:14:32;;;;;;;4.95;3.63;;;24.90;85.00;;;;;;5093879;28;20028;-73
2021/09/22 11:17:10;;;;;;;6.35;3.55;;;24.50;85.50;;;;;;5091772;28;20097;-73
2021/09/22 11:19:37;;;;;;;5.28;3.10;;;25.50;83.90;;;;;;5093575;28;20028;-74
2021/09/22 11:22:06;;;;;;;5.68;3.50;;;25.50;82.30;;;;;;5083859;28;20071;-72
2021/09/22 11:24:33;;;;;;;6.85;3.35;;;26.20;81.80;;;;;;5090438;28;20075;-73
2021/09/22 11:27:05;;;;;;;5.18;3.40;;;26.80;81.90;;;;;;5091374;28;20050;-75
2021/09/22 11:29:47;;;;;;;7.10;2.65;;;26.60;80.00;;;;;;5091009;28;20056;-72
2021/09/22 11:32:34;;;;;;;4.13;2.80;;;25.90;81.00;;;;;;5090405;28;20043;-72
2021/09/22 11:35:02;;;;;;;2.88;2.58;;;26.10;79.80;;;;;;5089471;28;20024;-72
2021/09/22 11:37:31;;;;;;;5.00;2.95;;;26.30;80.50;;;;;;5090019;28;20020;-72
2021/09/22 11:40:06;;;;;;;4.05;2.47;;;26.20;79.00;;;;;;5091514;28;20048;-73
2021/09/22 11:42:31;;;;;;;7.03;2.83;;;26.80;80.50;;;;;;5087545;28;20395;-72
2021/09/22 11:44:57;;;;;;;5.32;3.15;;;26.90;77.70;;;;;;5090124;28;20037;-71
2021/09/22 11:47:23;;;;;;;14.25;2.95;;;26.90;77.50;;;;;;5091925;28;20024;-72
2021/09/22 11:49:50;;;;;;;6.45;3.13;;;27.10;77.80;;;;;;5093245;28;20028;-71
2021/09/22 11:52:18;;;;;;;4.25;3.05;;;27.20;77.20;;;;;;5092161;28;20024;-70
2021/09/22 11:54:50;;;;;;;4.57;2.53;;;27.40;75.10;;;;;;5091677;28;20111;-72
2021/09/22 11:57:17;;;;;;;7.60;2.25;;;27.90;76.60;;;;;;5091672;28;20031;-73
2021/09/22 11:59:45;;;;;;;7.82;3.85;;;27.80;75.60;;;;;;5091283;28;20453;-70
2021/09/22 12:02:13;;;;;;;3.58;2.25;;;27.50;74.10;;;;;;5092452;28;20020;-70
2021/09/22 12:04:45;;;;;;;13.05;2.40;;;27.70;74.90;;;;;;5091551;28;20043;-70
2021/09/22 12:07:11;;;;;;;9.40;2.58;;;27.70;74.30;;;;;;5090908;28;20187;-69
2021/09/22 12:09:46;;;;;;;3.50;2.33;;;27.20;79.00;;;;;;5091295;28;20466;-70
2021/09/22 12:12:18;;;;;;;3.97;2.25;;;26.60;72.30;;;;;;5091143;28;20035;-70
2021/09/22 12:14:52;;;;;;;5.45;2.92;;;26.10;74.30;;;;;;5093253;28;20028;-69
2021/09/22 12:17:22;;;;;;;25.60;4.60;;;25.60;75.20;;;;;;5090845;28;20058;-71
2021/09/22 12:19:48;;;;;;;6.40;2.72;;;26.10;76.10;;;;;;5092848;28;20335;-69
2021/09/22 12:22:27;;;;;;;4.68;2.08;;;26.50;75.80;;;;;;5073718;28;20032;-69
2021/09/22 12:24:52;;;;;;;3.88;1.98;;;27.20;76.00;;;;;;5092191;28;20449;-68
2021/09/22 12:27:20;;;;;;;4.70;2.25;;;27.60;72.60;;;;;;5092938;28;20050;-69
2021/09/22 12:30:11;;;;;;;6.18;2.90;;;27.50;71.90;;;;;;5093131;28;20342;-71
2021/09/22 12:33:01;;;;;;;6.30;2.28;;;27.00;72.70;;;;;;5091346;28;20020;-70
2021/09/22 12:35:32;;;;;;;5.83;2.50;;;27.80;74.20;;;;;;5092320;28;20115;-70
2021/09/22 12:38:01;;;;;;;4.20;2.28;;;28.50;72.30;;;;;;5091898;28;20123;-70
2021/09/22 12:40:50;;;;;;;3.10;2.30;;;28.70;72.30;;;;;;5090742;28;20036;-69
2021/09/22 12:43:28;;;;;;;4.53;2.38;;;28.70;71.60;;;;;;5091575;28;20027;-70
2021/09/22 12:46:18;;;;;;;5.45;2.40;;;28.60;71.10;;;;;;5090117;28;20047;-72
2021/09/22 12:48:45;;;;;;;4.63;2.00;;;28.70;70.90;;;;;;5091869;28;20024;-69
2021/09/22 12:51:24;;;;;;;8.65;2.55;;;28.70;70.90;;;;;;5074442;28;20050;-71